Time;durP1;ratioP1;P1;durP2;ratioP2;P2;SDS_P1;SDS_P2;PMS_P1;PMS_P2;Temp;Humidity;BMP_temperature;BMP_pressure;BME280_temperature;BME280_humidity;BME280_pressure;Samples;Min_cycle;Max_cycle;Signal;HPM_P1;HPM_P2
2022/11/30 00:04:51;;;;;;;88.03;39.93;;;;;;;2.03;100.00;101451.81;3523845;80;99102;-84
2022/11/30 00:09:51;;;;;;;85.50;39.70;;;;;;;2.01;100.00;101459.42;3539569;81;32435;-84
2022/11/30 00:14:52;;;;;;;96.87;40.83;;;;;;;2.01;100.00;101457.53;3537753;81;99085;-85
2022/11/30 00:19:53;;;;;;;86.77;39.90;;;;;;;2.03;100.00;101467.53;3528544;82;28250;-84
2022/11/30 00:24:54;;;;;;;85.27;38.37;;;;;;;2.03;100.00;101471.61;3514174;82;99099;-85
2022/11/30 00:29:55;;;;;;;87.23;40.87;;;;;;;2.03;100.00;101474.89;3529419;82;25985;-84
2022/11/30 00:34:56;;;;;;;80.90;39.83;;;;;;;1.99;100.00;101476.57;3546543;80;99046;-85
2022/11/30 00:39:57;;;;;;;83.67;42.07;;;;;;;1.97;100.00;101486.93;3593749;80;26194;-85
2022/11/30 00:44:57;;;;;;;90.33;42.57;;;;;;;1.95;100.00;101481.78;3582317;81;98954;-85
2022/11/30 00:49:58;;;;;;;80.57;40.10;;;;;;;1.98;100.00;101493.39;3601249;80;25954;-84
2022/11/30 00:54:59;;;;;;;85.47;41.57;;;;;;;2.02;100.00;101489.00;3595567;81;99204;-84
2022/11/30 01:00:00;;;;;;;80.13;38.43;;;;;;;1.99;100.00;101488.78;3597900;81;26416;-84
2022/11/30 01:05:00;;;;;;;83.33;36.70;;;;;;;1.99;100.00;101498.29;3603550;80;98972;-84
2022/11/30 01:10:02;;;;;;;91.08;42.08;;;;;;;1.95;100.00;101500.79;3592273;81;33237;-85
2022/11/30 01:15:03;;;;;;;88.00;39.27;;;;;;;1.94;100.00;101494.29;3591951;80;99267;-85
2022/11/30 01:20:11;;;;;;;90.10;40.50;;;;;;;1.93;100.00;101499.47;3585849;81;33740;-86
2022/11/30 01:25:09;;;;;;;91.35;39.35;;;;;;;1.87;100.00;101500.64;3587540;81;99577;-85
2022/11/30 01:30:11;;;;;;;93.40;42.13;;;;;;;1.82;100.00;101505.60;3591237;81;33694;-86
2022/11/30 01:35:12;;;;;;;93.33;40.67;;;;;;;1.76;100.00;101504.03;3580104;80;99254;-86
2022/11/30 01:40:13;;;;;;;82.35;37.28;;;;;;;1.76;100.00;101510.03;3590574;81;33178;-85
2022/11/30 01:45:14;;;;;;;87.03;37.47;;;;;;;1.74;100.00;101513.02;3582755;81;99047;-87
2022/11/30 01:50:20;;;;;;;84.40;38.60;;;;;;;1.75;100.00;101511.92;3601948;81;33264;-85
2022/11/30 01:55:36;;;;;;;91.32;37.83;;;;;;;1.73;100.00;101512.77;3590308;80;99050;-85
2022/11/30 02:00:41;;;;;;;91.67;40.38;;;;;;;1.71;100.00;101513.59;3616337;80;26167;-86
2022/11/30 02:05:42;;;;;;;89.80;40.37;;;;;;;1.68;100.00;101521.52;3560408;81;99047;-85
2022/11/30 02:10:48;;;;;;;86.87;37.93;;;;;;;1.69;100.00;101510.38;3543224;82;33291;-86
2022/11/30 02:15:57;;;;;;;89.93;40.70;;;;;;;1.68;100.00;101521.52;3531924;82;99011;-84
2022/11/30 02:21:15;;;;;;;91.13;38.83;;;;;;;1.64;100.00;101521.86;3545333;83;26315;-85
2022/11/30 02:26:48;;;;;;;87.20;39.43;;;;;;;1.63;100.00;101527.00;3559833;82;99048;-85
2022/11/30 02:32:21;;;;;;;86.83;39.07;;;;;;;1.63;100.00;101518.33;3587102;81;26026;-87
2022/11/30 02:37:25;;;;;;;94.33;38.50;;;;;;;1.63;100.00;101516.16;3576938;81;98948;-86
2022/11/30 02:42:26;;;;;;;89.03;39.00;;;;;;;1.48;100.00;101512.30;3580482;80;26484;-86
2022/11/30 02:47:40;;;;;;;95.00;41.13;;;;;;;1.45;100.00;101518.30;3595293;81;98964;-86
2022/11/30 02:52:41;;;;;;;98.43;41.60;;;;;;;1.43;100.00;101521.29;3592009;81;26427;-86
2022/11/30 02:57:42;;;;;;;100.83;42.47;;;;;;;1.40;100.00;101524.59;3583964;80;98951;-87
2022/11/30 03:02:43;;;;;;;91.90;39.88;;;;;;;1.33;100.00;101523.33;3595798;81;33222;-85
2022/11/30 03:07:43;;;;;;;99.87;43.30;;;;;;;1.34;100.00;101530.36;3576799;81;98768;-86
2022/11/30 03:12:44;;;;;;;98.80;39.03;;;;;;;1.29;100.00;101523.10;3584484;81;33191;-85
2022/11/30 03:17:45;;;;;;;98.53;41.17;;;;;;;1.25;100.00;101530.19;3541049;81;98816;-85
2022/11/30 03:22:46;;;;;;;97.17;38.60;;;;;;;1.21;100.00;101530.50;3547208;81;33184;-85
2022/11/30 03:27:47;;;;;;;96.10;38.97;;;;;;;1.20;100.00;101537.59;3604630;80;98809;-85
2022/11/30 03:32:50;;;;;;;92.60;36.53;;;;;;;1.20;100.00;101537.59;3605490;80;31964;-84
2022/11/30 03:37:51;;;;;;;90.97;37.42;;;;;;;1.13;100.00;101536.56;3597751;80;98741;-85
2022/11/30 03:42:52;;;;;;;90.47;36.50;;;;;;;1.10;100.00;101546.61;3600460;80;33530;-84
2022/11/30 03:47:53;;;;;;;102.47;41.27;;;;;;;1.07;100.00;101540.96;3614507;80;98733;-86
2022/11/30 03:52:54;;;;;;;92.60;38.50;;;;;;;1.07;100.00;101541.78;3605012;80;31433;-85
2022/11/30 03:57:54;;;;;;;103.23;42.13;;;;;;;1.12;100.00;101549.05;3588635;80;98781;-87
2022/11/30 04:02:55;;;;;;;96.47;40.27;;;;;;;1.08;100.00;101551.53;3586054;80;32198;-84
2022/11/30 04:07:56;;;;;;;95.57;38.53;;;;;;;1.08;100.00;101558.30;3579030;81;98888;-84
2022/11/30 04:12:57;;;;;;;97.27;39.38;;;;;;;1.00;100.00;101552.13;3590846;80;30447;-86
2022/11/30 04:17:57;;;;;;;89.63;36.80;;;;;;;0.93;100.00;101559.01;3590051;81;98808;-84
2022/11/30 04:22:58;;;;;;;88.60;36.40;;;;;;;0.92;100.00;101559.55;3594603;81;31613;-84
2022/11/30 04:27:59;;;;;;;89.77;37.63;;;;;;;0.89;100.00;101564.73;3575660;80;98631;-85
2022/11/30 04:33:00;;;;;;;95.30;39.62;;;;;;;0.85;100.00;101567.21;3582983;80;29947;-86
2022/11/30 04:38:01;;;;;;;91.23;40.70;;;;;;;0.84;100.00;101569.66;3578657;81;98653;-87
2022/11/30 04:43:02;;;;;;;93.10;40.57;;;;;;;0.80;100.00;101574.03;3595509;80;35003;-86
2022/11/30 04:48:04;;;;;;;85.30;35.83;;;;;;;0.77;100.00;101575.94;3594782;80;98923;-86
2022/11/30 04:53:05;;;;;;;88.80;36.95;;;;;;;0.70;100.00;101578.17;3587599;80;35510;-84
2022/11/30 04:58:07;;;;;;;84.60;37.03;;;;;;;0.71;100.00;101584.41;3584855;80;98697;-87
2022/11/30 05:03:07;;;;;;;83.50;35.10;;;;;;;0.62;100.00;101582.83;3582094;80;99357;-87
2022/11/30 05:08:08;;;;;;;83.13;35.60;;;;;;;0.54;100.00;101592.92;3510095;82;34874;-84
2022/11/30 05:13:09;;;;;;;72.33;31.50;;;;;;;0.55;100.00;101592.39;3518358;82;99047;-85
2022/11/30 05:18:10;;;;;;;76.80;33.40;;;;;;;0.54;100.00;101591.57;3590450;80;35524;-86
2022/11/30 05:23:10;;;;;;;82.83;35.13;;;;;;;0.52;100.00;101606.48;3585417;81;99028;-85
2022/11/30 05:28:12;;;;;;;90.30;37.13;;;;;;;0.50;100.00;101607.32;3598439;80;35396;-85
2022/11/30 05:33:14;;;;;;;90.05;37.03;;;;;;;0.45;100.00;101605.44;3582694;80;99079;-85
2022/11/30 05:38:14;;;;;;;86.90;37.60;;;;;;;0.40;100.00;101620.36;3576816;81;31039;-84
2022/11/30 05:43:15;;;;;;;83.72;34.83;;;;;;;0.43;100.00;101621.70;3583517;81;99050;-85
2022/11/30 05:48:16;;;;;;;93.53;37.57;;;;;;;0.42;100.00;101628.21;3591246;80;33294;-85
2022/11/30 05:53:17;;;;;;;97.30;40.17;;;;;;;0.41;100.00;101635.55;3570831;81;98989;-85
2022/11/30 05:58:18;;;;;;;99.90;42.83;;;;;;;0.44;100.00;101638.24;3600461;80;33351;-85
2022/11/30 06:03:18;;;;;;;92.37;39.27;;;;;;;0.44;100.00;101641.73;3592519;81;98992;-85
2022/11/30 06:08:19;;;;;;;87.20;36.30;;;;;;;0.43;100.00;101649.61;3601097;81;32436;-87
2022/11/30 06:13:20;;;;;;;91.93;36.07;;;;;;;0.40;100.00;101648.80;3600076;81;99027;-84
2022/11/30 06:18:21;;;;;;;92.03;37.03;;;;;;;0.35;100.00;101660.22;3593779;80;27460;-86
2022/11/30 06:23:21;;;;;;;78.93;32.17;;;;;;;0.34;100.00;101672.94;3593294;81;98954;-86
2022/11/30 06:28:23;;;;;;;82.43;32.13;;;;;;;0.33;100.00;101667.82;3601674;81;26192;-86
2022/11/30 06:33:24;;;;;;;80.38;34.67;;;;;;;0.34;100.00;101665.38;3597025;80;99335;-87
2022/11/30 06:38:26;;;;;;;77.57;33.93;;;;;;;0.34;100.00;101665.38;3609866;80;25923;-87
2022/11/30 06:43:26;;;;;;;80.27;34.00;;;;;;;0.35;100.00;101665.10;3597910;81;98946;-84
2022/11/30 06:48:27;;;;;;;76.15;32.48;;;;;;;0.40;100.00;101675.88;3568504;80;26253;-85
2022/11/30 06:53:28;;;;;;;85.13;33.83;;;;;;;0.44;100.00;101678.86;3601027;81;99065;-86
2022/11/30 06:58:29;;;;;;;86.23;33.97;;;;;;;0.40;100.00;101685.35;3609729;80;26395;-85
2022/11/30 07:03:30;;;;;;;86.55;34.10;;;;;;;0.36;100.00;101684.31;3603164;81;98896;-84
2022/11/30 07:08:30;;;;;;;84.77;33.77;;;;;;;0.27;100.00;101698.16;3613458;81;26616;-84
2022/11/30 07:13:31;;;;;;;83.80;35.97;;;;;;;0.23;100.00;101700.36;3599680;80;99301;-85
2022/11/30 07:18:32;;;;;;;83.77;32.80;;;;;;;0.28;100.00;101705.19;3612510;81;33413;-85
2022/11/30 07:28:56;;;;;;;88.93;37.40;;;;;;;0.39;100.00;101701.34;3617770;81;25910;-86
2022/11/30 07:34:01;;;;;;;92.43;35.93;;;;;;;0.41;100.00;101718.67;3614847;80;98928;-86
2022/11/30 07:39:03;;;;;;;88.50;34.03;;;;;;;0.42;100.00;101725.70;3618054;81;26479;-85
2022/11/30 07:44:05;;;;;;;106.90;39.47;;;;;;;0.46;100.00;101724.06;3591267;80;99115;-86
2022/11/30 07:49:08;;;;;;;95.27;37.13;;;;;;;0.46;100.00;101722.71;3554730;81;26478;-83
2022/11/30 07:54:09;;;;;;;130.33;52.23;;;;;;;0.41;100.00;101727.63;3545233;81;98961;-85
2022/11/30 07:59:10;;;;;;;109.03;45.43;;;;;;;0.35;100.00;101725.20;3621926;80;33259;-84
2022/11/30 08:04:12;;;;;;;174.87;65.63;;;;;;;0.31;100.00;101720.07;3444355;83;99244;-86
2022/11/30 08:09:13;;;;;;;131.40;53.77;;;;;;;0.28;100.00;101726.06;3395456;85;33265;-85
2022/11/30 08:14:14;;;;;;;147.00;54.10;;;;;;;0.29;100.00;101721.69;3370682;84;98829;-84
2022/11/30 08:19:15;;;;;;;113.57;41.83;;;;;;;0.26;100.00;101732.27;3384890;85;33539;-86
2022/11/30 08:24:16;;;;;;;115.53;44.57;;;;;;;0.26;100.00;101720.09;3379404;85;99062;-85
2022/11/30 08:29:17;;;;;;;126.87;50.70;;;;;;;0.32;100.00;101729.81;3399566;86;33250;-87
2022/11/30 08:34:18;;;;;;;136.20;49.30;;;;;;;0.34;100.00;101736.56;3420684;83;99128;-85
2022/11/30 08:39:19;;;;;;;112.37;43.40;;;;;;;0.35;100.00;101744.16;3399169;85;31745;-86
2022/11/30 08:44:19;;;;;;;94.90;36.80;;;;;;;0.34;100.00;101735.77;3400426;83;99233;-84
2022/11/30 08:49:22;;;;;;;106.27;42.90;;;;;;;0.34;100.00;101751.46;3579634;80;26732;-85
2022/11/30 08:54:23;;;;;;;114.27;42.60;;;;;;;0.38;100.00;101755.77;3547515;80;98776;-86
2022/11/30 08:59:23;;;;;;;96.40;38.07;;;;;;;0.43;100.00;101772.00;3506413;83;32181;-86
2022/11/30 09:04:24;;;;;;;101.27;38.83;;;;;;;0.50;100.00;101773.89;3504885;82;99172;-85
2022/11/30 09:09:25;;;;;;;90.90;36.07;;;;;;;0.51;100.00;101770.88;3476862;83;32290;-85
2022/11/30 09:14:26;;;;;;;135.63;46.90;;;;;;;0.54;100.00;101768.98;3504149;82;99094;-86
2022/11/30 09:19:27;;;;;;;110.70;41.10;;;;;;;0.52;100.00;101779.30;3505567;82;31636;-86
2022/11/30 09:24:28;;;;;;;96.73;35.47;;;;;;;0.57;100.00;101783.88;3485325;81;99428;-87
2022/11/30 09:29:29;;;;;;;101.58;38.58;;;;;;;0.56;100.00;101775.48;3509053;81;29710;-86
2022/11/30 09:34:29;;;;;;;98.27;36.47;;;;;;;0.58;100.00;101782.25;3500263;81;99222;-86
2022/11/30 09:39:30;;;;;;;96.37;41.03;;;;;;;0.64;100.00;101782.48;3516797;81;34827;-86
2022/11/30 09:44:42;;;;;;;115.28;44.18;;;;;;;0.65;100.00;101780.57;3504013;81;98966;-87
2022/11/30 09:49:47;;;;;;;96.37;37.23;;;;;;;0.60;100.00;101777.34;3502991;81;26786;-86
2022/11/30 09:54:48;;;;;;;99.27;40.83;;;;;;;0.58;100.00;101774.12;3497216;81;98791;-86
2022/11/30 09:59:59;;;;;;;96.50;41.23;;;;;;;0.60;100.00;101773.85;3517023;81;34862;-87
2022/11/30 10:05:00;;;;;;;90.37;39.33;;;;;;;0.55;100.00;101769.25;3503040;81;99297;-86
2022/11/30 10:10:28;;;;;;;91.03;36.40;;;;;;;0.59;100.00;101775.73;3505979;81;26448;-87
2022/11/30 10:15:53;;;;;;;99.87;38.23;;;;;;;0.53;100.00;101769.25;3494505;81;98973;-84
2022/11/30 10:21:20;;;;;;;101.07;38.40;;;;;;;0.59;100.00;101778.45;3509865;80;26351;-84
2022/11/30 10:26:34;;;;;;;87.73;36.17;;;;;;;0.58;100.00;101782.78;3500445;81;99172;-86
2022/11/30 10:31:37;;;;;;;93.97;38.15;;;;;;;0.56;100.00;101769.50;3503240;81;29438;-84
2022/11/30 10:36:45;;;;;;;94.00;36.07;;;;;;;0.63;100.00;101775.45;3494440;82;98727;-84
2022/11/30 10:41:55;;;;;;;101.60;37.10;;;;;;;0.69;100.00;101769.45;3495684;81;26431;-86
2022/11/30 10:47:24;;;;;;;96.08;39.63;;;;;;;0.73;100.00;101766.45;3507636;81;98898;-86
2022/11/30 10:52:30;;;;;;;91.70;37.00;;;;;;;0.72;100.00;101766.20;3501131;81;26047;-86
2022/11/30 10:57:37;;;;;;;97.97;37.98;;;;;;;0.71;100.00;101764.58;3486454;82;98812;-86
2022/11/30 11:02:47;;;;;;;82.25;33.00;;;;;;;0.69;100.00;101766.20;3486819;82;26656;-86
2022/11/30 11:07:58;;;;;;;86.00;31.45;;;;;;;0.68;100.00;101765.13;3478769;82;98848;-84
2022/11/30 11:13:12;;;;;;;91.37;37.23;;;;;;;0.66;100.00;101757.27;3486483;82;26899;-86
2022/11/30 11:18:24;;;;;;;;;;;;;;;0.67;100.00;101746.69;3502984;81;99995;-86
2022/11/30 11:23:36;;;;;;;85.77;31.90;;;;;;;0.71;100.00;101753.18;3495483;82;84572;-86
2022/11/30 11:28:49;;;;;;;83.70;32.85;;;;;;;0.72;100.00;101748.02;3497386;82;31428;-86
2022/11/30 11:33:53;;;;;;;94.17;37.20;;;;;;;0.72;100.00;101752.65;3479756;82;98960;-84
2022/11/30 11:38:55;;;;;;;85.07;33.53;;;;;;;0.67;100.00;101759.45;3490412;82;26469;-84
2022/11/30 11:44:10;;;;;;;72.93;31.07;;;;;;;0.69;100.00;101758.61;3481188;82;99041;-86
2022/11/30 11:49:27;;;;;;;85.30;33.63;;;;;;;0.65;100.00;101752.95;3490994;82;26502;-86
2022/11/30 11:54:50;;;;;;;82.47;33.20;;;;;;;0.64;100.00;101764.05;3492172;81;98997;-85
2022/11/30 12:00:04;;;;;;;90.80;34.77;;;;;;;0.62;100.00;101768.95;3492826;82;26608;-86
2022/11/30 12:05:14;;;;;;;84.57;32.33;;;;;;;0.61;100.00;101765.98;3517261;80;99045;-86
2022/11/30 12:10:35;;;;;;;82.73;32.70;;;;;;;0.50;100.00;101769.83;3580635;80;25987;-85
2022/11/30 12:15:42;;;;;;;89.93;34.80;;;;;;;0.50;100.00;101769.83;3575173;80;98725;-85
2022/11/30 12:21:14;;;;;;;;;;;;;;;0.54;100.00;101770.88;3582563;80;26097;-85
2022/11/30 12:26:40;;;;;;;84.37;33.17;;;;;;;0.56;100.00;101776.28;3569953;80;84794;-85
2022/11/30 12:31:47;;;;;;;91.70;34.85;;;;;;;0.58;100.00;101779.54;3561152;80;25853;-86
2022/11/30 12:37:02;;;;;;;;;;;;;;;0.61;100.00;101780.32;3552459;80;99038;-86
2022/11/30 12:42:28;;;;;;;103.78;42.53;;;;;;;0.61;100.00;101780.32;3564366;80;31800;-85
2022/11/30 12:47:56;;;;;;;94.93;37.67;;;;;;;0.66;100.00;101783.01;3562198;80;99073;-86
2022/11/30 12:53:05;;;;;;;93.70;35.57;;;;;;;0.68;100.00;101776.78;3591529;79;26512;-87
2022/11/30 12:58:14;;;;;;;95.03;38.00;;;;;;;0.74;100.00;101781.62;3597813;79;98453;-86
2022/11/30 13:03:32;;;;;;;103.03;34.90;;;;;;;0.74;100.00;101781.62;3604382;79;99198;-86
2022/11/30 13:08:45;;;;;;;96.90;35.50;;;;;;;0.64;100.00;101789.26;3605530;79;26398;-84
2022/11/30 13:13:56;;;;;;;84.60;32.93;;;;;;;0.52;100.00;101788.78;3613707;79;99177;-85
2022/11/30 13:19:02;;;;;;;92.43;35.13;;;;;;;0.52;100.00;101788.78;3617340;79;25931;-86
2022/11/30 13:24:30;;;;;;;93.65;33.02;;;;;;;0.52;100.00;101787.42;3612255;79;99085;-86
2022/11/30 13:30:08;;;;;;;86.00;32.63;;;;;;;0.50;100.00;101780.66;3624671;79;26726;-84
2022/11/30 13:35:35;;;;;;;86.13;33.43;;;;;;;0.48;100.00;101789.59;3603762;79;99014;-85
2022/11/30 13:40:35;;;;;;;;;;;;;;;0.50;100.00;101791.50;3608045;79;25940;-85
2022/11/30 13:45:37;;;;;;;95.73;35.37;;;;;;;0.52;100.00;101787.42;3607329;79;84950;-84
2022/11/30 13:50:46;;;;;;;99.23;36.47;;;;;;;0.47;100.00;101793.39;3612516;79;34898;-85
2022/11/30 13:56:16;;;;;;;82.03;31.80;;;;;;;0.41;100.00;101790.44;3560096;80;99151;-85
2022/11/30 14:01:27;;;;;;;79.17;28.43;;;;;;;0.35;100.00;101801.84;3548070;80;25901;-84
2022/11/30 14:06:54;;;;;;;83.47;33.37;;;;;;;0.37;100.00;101806.97;3550235;80;99325;-86
2022/11/30 14:11:54;;;;;;;94.03;32.95;;;;;;;0.42;100.00;101809.13;3551318;80;26514;-85
2022/11/30 14:16:57;;;;;;;90.47;34.83;;;;;;;0.47;100.00;101808.28;3550222;80;98901;-85
2022/11/30 14:21:58;;;;;;;99.67;36.83;;;;;;;0.49;100.00;101806.92;3570323;80;25785;-85
2022/11/30 14:27:02;;;;;;;85.23;34.17;;;;;;;0.42;100.00;101809.66;3565400;80;98820;-85
2022/11/30 14:32:20;;;;;;;87.03;33.60;;;;;;;0.38;100.00;101809.41;3533640;80;25963;-85
2022/11/30 14:37:30;;;;;;;91.53;32.50;;;;;;;0.42;100.00;101817.78;3548462;80;98934;-86
2022/11/30 14:42:34;;;;;;;86.40;35.80;;;;;;;0.40;100.00;101816.70;3563000;80;25862;-86
2022/11/30 14:47:50;;;;;;;;;;;;;;;;;;;;;
2022/11/30 14:53:13;;;;;;;106.13;37.43;;;;;;;0.37;100.00;101819.15;3555729;80;27858;-85
2022/11/30 14:58:41;;;;;;;91.00;33.70;;;;;;;0.34;100.00;101824.57;3552606;80;25979;-85
2022/11/30 15:03:41;;;;;;;94.58;35.45;;;;;;;0.36;100.00;101818.88;3559157;80;98950;-86
2022/11/30 15:08:52;;;;;;;90.20;32.47;;;;;;;0.34;100.00;101820.51;3567934;80;35062;-86
2022/11/30 15:13:57;;;;;;;88.73;32.80;;;;;;;0.32;100.00;101823.22;3555390;80;99099;-86
2022/11/30 15:18:58;;;;;;;89.80;34.23;;;;;;;0.31;100.00;101821.61;3555615;80;26648;-86
2022/11/30 15:24:01;;;;;;;94.00;36.38;;;;;;;0.26;100.00;101825.67;3574644;80;99039;-86
2022/11/30 15:29:33;;;;;;;85.97;34.30;;;;;;;0.20;100.00;101832.20;3557448;80;26327;-85
2022/11/30 15:34:41;;;;;;;86.92;34.08;;;;;;;0.18;100.00;101837.88;3442575;84;99281;-87
2022/11/30 15:39:51;;;;;;;77.07;31.77;;;;;;;0.14;100.00;101833.30;3528636;80;26473;-84
2022/11/30 15:44:52;;;;;;;83.77;32.77;;;;;;;0.17;100.00;101845.73;3543555;80;99167;-86
2022/11/30 15:49:54;;;;;;;84.60;35.53;;;;;;;0.18;100.00;101839.23;3547003;80;34863;-87
2022/11/30 15:55:00;;;;;;;83.60;33.40;;;;;;;0.18;100.00;101844.64;3547062;80;98932;-87
2022/11/30 16:00:15;;;;;;;83.87;33.33;;;;;;;0.15;100.00;101848.45;3511621;82;34954;-87
2022/11/30 16:05:25;;;;;;;80.57;31.82;;;;;;;0.09;100.00;101838.19;3520309;80;99245;-88
2022/11/30 16:10:53;;;;;;;80.37;32.37;;;;;;;0.04;100.00;101845.48;3485858;82;26562;-87
2022/11/30 16:15:51;;;;;;;80.92;32.10;;;;;;;-0.01;100.00;101839.55;3505263;82;99120;-87
2022/11/30 16:20:58;;;;;;;89.60;34.93;;;;;;;0.01;100.00;101834.66;3505666;82;26487;-87
2022/11/30 16:25:59;;;;;;;93.43;36.53;;;;;;;0.01;100.00;101840.63;3486130;82;99021;-86
2022/11/30 16:31:00;;;;;;;84.43;35.17;;;;;;;0.00;100.00;101838.45;3490376;82;35525;-85
2022/11/30 16:36:09;;;;;;;76.43;27.93;;;;;;;-0.02;100.00;101838.46;3508671;82;99386;-85
2022/11/30 16:41:22;;;;;;;75.07;30.37;;;;;;;-0.01;100.00;101846.31;3536259;82;25906;-86
2022/11/30 16:46:28;;;;;;;73.97;29.43;;;;;;;0.00;100.00;101837.67;3518157;82;99101;-86
2022/11/30 16:51:33;;;;;;;74.70;30.93;;;;;;;-0.02;100.00;101841.73;3498460;82;26902;-84
2022/11/30 16:56:34;;;;;;;78.73;31.67;;;;;;;0.00;100.00;101843.08;3560686;80;99096;-84
2022/11/30 17:01:47;;;;;;;79.33;32.40;;;;;;;0.02;100.00;101849.02;3581495;80;35371;-85
2022/11/30 17:06:49;;;;;;;77.05;33.00;;;;;;;0.06;100.00;101846.05;3570450;80;99337;-86
2022/11/30 17:11:50;;;;;;;79.93;32.20;;;;;;;0.06;100.00;101854.16;3546231;80;27152;-85
2022/11/30 17:16:51;;;;;;;88.87;36.83;;;;;;;0.08;100.00;101851.45;3575574;80;98998;-86
2022/11/30 17:21:52;;;;;;;85.63;34.87;;;;;;;0.05;100.00;101861.46;3580032;80;35523;-85
2022/11/30 17:26:52;;;;;;;78.57;33.30;;;;;;;0.08;100.00;101861.45;3567083;80;98807;-85
2022/11/30 17:31:53;;;;;;;82.97;35.23;;;;;;;0.07;100.00;101864.69;3583660;80;34898;-84
2022/11/30 17:36:55;;;;;;;83.40;34.00;;;;;;;0.07;100.00;101868.75;3513036;82;99122;-87
2022/11/30 17:41:56;;;;;;;85.70;39.50;;;;;;;0.07;100.00;101872.81;3479199;83;34845;-86
2022/11/30 17:46:57;;;;;;;97.27;43.87;;;;;;;0.11;100.00;101872.55;3465075;83;99190;-85
2022/11/30 17:51:58;;;;;;;85.47;38.10;;;;;;;0.10;100.00;101877.70;3482499;83;34924;-87
2022/11/30 17:56:58;;;;;;;93.65;40.50;;;;;;;0.04;100.00;101880.67;3571863;81;98992;-86
2022/11/30 18:01:59;;;;;;;87.63;36.33;;;;;;;0.04;100.00;101882.84;3585186;80;32542;-87
2022/11/30 18:07:00;;;;;;;99.47;47.10;;;;;;;0.08;100.00;101883.11;3559255;80;98847;-85
2022/11/30 18:12:01;;;;;;;96.10;41.83;;;;;;;0.05;100.00;101891.77;3584469;80;32741;-86
2022/11/30 18:17:01;;;;;;;83.03;38.33;;;;;;;0.07;100.00;101888.27;3569981;80;98940;-87
2022/11/30 18:22:02;;;;;;;90.70;38.77;;;;;;;0.14;100.00;101903.67;3582578;80;32424;-87
2022/11/30 18:27:03;;;;;;;85.37;38.43;;;;;;;0.14;100.00;101901.80;3562582;80;99068;-86
2022/11/30 18:32:04;;;;;;;85.57;37.03;;;;;;;0.17;100.00;101899.09;3585644;80;33360;-87
2022/11/30 18:37:05;;;;;;;86.20;38.37;;;;;;;0.22;100.00;101909.34;3569543;80;98866;-87
2022/11/30 18:42:06;;;;;;;87.07;39.10;;;;;;;0.24;100.00;101906.38;3574710;80;26080;-87
2022/11/30 18:47:07;;;;;;;85.30;38.67;;;;;;;0.23;100.00;101905.55;3570595;80;98968;-87
2022/11/30 18:52:08;;;;;;;80.80;34.73;;;;;;;0.23;100.00;101912.32;3578243;80;26291;-86
2022/11/30 18:57:09;;;;;;;83.23;34.73;;;;;;;0.21;100.00;101913.15;3594376;80;98762;-84
2022/11/30 19:02:10;;;;;;;80.20;34.33;;;;;;;0.20;100.00;101917.47;3587901;80;26271;-83
2022/11/30 19:07:11;;;;;;;73.57;31.97;;;;;;;0.21;100.00;101928.56;3588719;80;98739;-84
2022/11/30 19:12:12;;;;;;;73.97;33.37;;;;;;;0.16;100.00;101929.39;3603208;80;26481;-82
2022/11/30 19:17:13;;;;;;;85.80;40.00;;;;;;;0.18;100.00;101935.34;3585679;80;98731;-83
2022/11/30 19:22:14;;;;;;;86.90;41.17;;;;;;;0.21;100.00;101940.22;3603613;80;26260;-84
2022/11/30 19:27:14;;;;;;;81.63;36.90;;;;;;;0.20;100.00;101941.31;3587766;79;99014;-84
2022/11/30 19:32:15;;;;;;;81.23;35.33;;;;;;;0.22;100.00;101943.19;3593494;80;33111;-83
2022/11/30 19:37:16;;;;;;;72.67;33.93;;;;;;;0.24;100.00;101944.28;3581734;80;98452;-83
2022/11/30 19:42:17;;;;;;;68.27;31.13;;;;;;;0.18;100.00;101938.04;3589553;80;33239;-83
2022/11/30 19:47:18;;;;;;;70.33;32.70;;;;;;;0.16;100.00;101948.87;3580923;80;98937;-83
2022/11/30 19:52:19;;;;;;;62.13;29.67;;;;;;;0.15;100.00;101950.78;3589192;80;33718;-86
2022/11/30 19:57:20;;;;;;;64.43;30.53;;;;;;;0.15;100.00;101956.20;3572020;80;99060;-86
2022/11/30 20:02:21;;;;;;;60.40;30.23;;;;;;;0.16;100.00;101953.75;3564934;80;33281;-86
2022/11/30 20:07:22;;;;;;;59.70;28.70;;;;;;;0.13;100.00;101950.78;3570986;80;98886;-90
2022/11/30 20:12:22;;;;;;;70.10;35.37;;;;;;;0.12;100.00;101951.87;3578703;80;29457;-85
2022/11/30 20:17:23;;;;;;;67.73;30.53;;;;;;;0.10;100.00;101958.91;3583442;79;98756;-85
2022/11/30 20:22:24;;;;;;;69.00;31.40;;;;;;;0.11;100.00;101958.38;3570673;80;31673;-86
2022/11/30 20:27:25;;;;;;;70.33;32.27;;;;;;;0.13;100.00;101958.34;3577069;80;98958;-86
2022/11/30 20:32:26;;;;;;;64.90;30.30;;;;;;;0.15;100.00;101957.55;3575389;80;31725;-87
2022/11/30 20:37:27;;;;;;;58.53;28.87;;;;;;;0.18;100.00;101957.55;3560807;80;98853;-86
2022/11/30 20:42:28;;;;;;;66.73;31.70;;;;;;;0.16;100.00;101952.94;3586550;80;31617;-88
2022/11/30 20:47:33;;;;;;;59.27;25.87;;;;;;;0.18;100.00;101956.20;3573892;80;98898;-87
2022/11/30 20:52:34;;;;;;;58.85;28.20;;;;;;;0.19;100.00;101961.35;3574982;80;33764;-85
2022/11/30 20:57:37;;;;;;;62.93;29.02;;;;;;;0.19;100.00;101959.17;3580792;79;98890;-85
2022/11/30 21:02:37;;;;;;;59.90;28.17;;;;;;;0.16;100.00;101961.87;3627548;79;32307;-85
2022/11/30 21:07:38;;;;;;;67.27;32.50;;;;;;;0.18;100.00;101957.55;3625131;79;98852;-86
2022/11/30 21:12:39;;;;;;;63.23;30.40;;;;;;;0.21;100.00;101965.11;3617482;79;32130;-86
2022/11/30 21:17:40;;;;;;;59.83;29.53;;;;;;;0.23;100.00;101973.80;3621429;79;98888;-86
2022/11/30 21:22:40;;;;;;;62.93;29.10;;;;;;;0.25;100.00;101961.62;3631632;79;30697;-86
2022/11/30 21:27:42;;;;;;;62.83;30.23;;;;;;;0.26;100.00;101966.47;3622403;79;98886;-86
2022/11/30 21:32:42;;;;;;;57.73;27.17;;;;;;;0.28;100.00;101970.53;3635545;79;29819;-87
2022/11/30 21:37:43;;;;;;;61.57;28.33;;;;;;;0.34;100.00;101961.88;3619698;79;98949;-87
2022/11/30 21:42:44;;;;;;;58.47;28.90;;;;;;;0.36;100.00;101965.94;3626478;79;34842;-87
2022/11/30 21:47:45;;;;;;;66.43;30.60;;;;;;;0.37;100.00;101972.98;3616153;79;98879;-87
2022/11/30 21:52:45;;;;;;;62.67;29.77;;;;;;;0.37;100.00;101972.15;3623259;79;34910;-86
2022/11/30 21:57:46;;;;;;;60.87;29.00;;;;;;;0.39;100.00;101967.30;3602774;79;98798;-85
2022/11/30 22:02:47;;;;;;;64.07;30.83;;;;;;;0.43;100.00;101969.17;3586131;80;35780;-86
2022/11/30 22:07:48;;;;;;;61.43;28.30;;;;;;;0.44;100.00;101965.37;3585657;80;98986;-86
2022/11/30 22:12:48;;;;;;;63.25;31.02;;;;;;;0.48;100.00;101962.41;3599244;80;35929;-87
2022/11/30 22:17:50;;;;;;;58.10;27.10;;;;;;;0.49;100.00;101954.54;3592376;80;98782;-87
2022/11/30 22:22:51;;;;;;;60.38;28.12;;;;;;;0.51;100.00;101955.07;3590452;80;33154;-87
2022/11/30 22:27:52;;;;;;;53.37;26.40;;;;;;;0.54;100.00;101955.06;3595976;79;98836;-86
2022/11/30 22:32:53;;;;;;;61.10;30.13;;;;;;;0.56;100.00;101947.50;3598524;80;32507;-87
2022/11/30 22:37:54;;;;;;;59.13;27.30;;;;;;;0.59;100.00;101952.34;3591221;80;99115;-87
2022/11/30 22:42:54;;;;;;;54.20;28.03;;;;;;;0.60;100.00;101951.30;3604738;80;32393;-87
2022/11/30 22:47:55;;;;;;;50.40;23.23;;;;;;;0.61;100.00;101964.54;3585160;80;98793;-86
2022/11/30 22:52:56;;;;;;;51.77;26.30;;;;;;;0.62;100.00;101954.52;3592990;80;32486;-86
2022/11/30 22:57:57;;;;;;;58.33;27.40;;;;;;;0.59;100.00;101954.53;3581035;80;98699;-87
2022/11/30 23:02:58;;;;;;;55.27;26.30;;;;;;;0.62;100.00;101947.75;3583210;80;28292;-86
2022/11/30 23:07:58;;;;;;;50.37;25.17;;;;;;;0.66;100.00;101954.25;3564652;80;98653;-86
2022/11/30 23:12:59;;;;;;;57.30;26.63;;;;;;;0.68;100.00;101937.17;3580024;80;25894;-85
2022/11/30 23:18:00;;;;;;;57.67;26.80;;;;;;;0.67;100.00;101938.27;3577603;80;98679;-84